createdAt,value
2023-04-21T00:00:09.389Z,96467.00
2023-04-21T00:02:39.774Z,96466.00
2023-04-21T00:05:10.971Z,96471.00
2023-04-21T00:07:39.027Z,96462.00
2023-04-21T00:10:10.700Z,96459.00
2023-04-21T00:12:38.379Z,96455.00
2023-04-21T00:15:06.490Z,96454.00
2023-04-21T00:17:33.757Z,96452.00
2023-04-21T00:20:01.020Z,96447.00
2023-04-21T00:22:28.221Z,96450.00
2023-04-21T00:24:55.498Z,96438.00
2023-04-21T00:27:22.683Z,96440.00
2023-04-21T00:29:49.823Z,96438.00
2023-04-21T00:32:17.055Z,96434.00
2023-04-21T00:34:44.341Z,96432.00
2023-04-21T00:37:11.539Z,96434.00
2023-04-21T00:39:38.888Z,96430.00
2023-04-21T00:42:06.091Z,96428.00
2023-04-21T00:44:33.290Z,96438.00
2023-04-21T00:47:00.969Z,96432.00
2023-04-21T00:49:28.307Z,96426.00
2023-04-21T00:51:55.733Z,96437.00
2023-04-21T00:54:25.406Z,96434.00
2023-04-21T00:56:53.070Z,96434.00
2023-04-21T00:59:21.144Z,96432.00
2023-04-21T01:01:48.519Z,96437.00
2023-04-21T01:04:15.907Z,96438.00
2023-04-21T01:06:43.652Z,96437.00
2023-04-21T01:09:12.692Z,96436.00
2023-04-21T01:11:40.204Z,96450.00
2023-04-21T01:14:08.013Z,96455.00
2023-04-21T01:16:35.212Z,96451.00
2023-04-21T01:19:05.174Z,96451.00
2023-04-21T01:21:53.641Z,96454.00
2023-04-21T01:24:21.134Z,96452.00
2023-04-21T01:26:49.476Z,96459.00
2023-04-21T01:29:17.812Z,96447.00
2023-04-21T01:31:47.575Z,96456.00
2023-04-21T01:34:35.099Z,96455.00
2023-04-21T01:37:20.561Z,96450.00
2023-04-21T01:39:52.255Z,96452.00
2023-04-21T01:42:20.837Z,96446.00
2023-04-21T01:44:49.498Z,96445.00
2023-04-21T01:47:17.545Z,96437.00
2023-04-21T01:49:44.694Z,96447.00
2023-04-21T01:52:11.890Z,96442.00
2023-04-21T01:54:39.112Z,96450.00
2023-04-21T01:57:07.083Z,96448.00
2023-04-21T01:59:34.527Z,96442.00
2023-04-21T02:02:01.759Z,96446.00
2023-04-21T02:04:29.075Z,96446.00
2023-04-21T02:06:56.476Z,96436.00
2023-04-21T02:09:23.674Z,96431.00
2023-04-21T02:11:50.836Z,96431.00
2023-04-21T02:14:18.005Z,96429.00
2023-04-21T02:16:45.282Z,96435.00
2023-04-21T02:19:12.488Z,96437.00
2023-04-21T02:21:39.678Z,96443.00
2023-04-21T02:24:06.908Z,96442.00
2023-04-21T02:26:34.201Z,96431.00
2023-04-21T02:29:01.454Z,96434.00
2023-04-21T02:31:28.884Z,96431.00
2023-04-21T02:33:56.484Z,96429.00
2023-04-21T02:36:23.719Z,96430.00
2023-04-21T02:38:51.171Z,96424.00
2023-04-21T02:41:18.367Z,96423.00
2023-04-21T02:43:45.574Z,96436.00
2023-04-21T02:46:12.792Z,96429.00
2023-04-21T02:48:40.045Z,96431.00
2023-04-21T02:51:13.400Z,96431.00
2023-04-21T02:53:41.204Z,96429.00
2023-04-21T02:56:08.982Z,96430.00
2023-04-21T02:58:36.853Z,96418.00
2023-04-21T03:01:05.164Z,96424.00
2023-04-21T03:03:33.083Z,96428.00
2023-04-21T03:06:01.537Z,96427.00
2023-04-21T03:08:29.096Z,96428.00
2023-04-21T03:10:56.487Z,96430.00
2023-04-21T03:13:24.314Z,96418.00
2023-04-21T03:15:52.292Z,96422.00
2023-04-21T03:18:19.490Z,96430.00
2023-04-21T03:20:46.712Z,96425.00
2023-04-21T03:23:14.125Z,96423.00
2023-04-21T03:25:41.358Z,96426.00
2023-04-21T03:28:08.547Z,96415.00
2023-04-21T03:30:35.759Z,96414.00
2023-04-21T03:33:03.411Z,96416.00
2023-04-21T03:35:30.708Z,96419.00
2023-04-21T03:37:58.027Z,96422.00
2023-04-21T03:40:25.214Z,96414.00
2023-04-21T03:42:52.408Z,96414.00
2023-04-21T03:45:22.474Z,96416.00
2023-04-21T03:47:52.980Z,96420.00
2023-04-21T03:50:20.179Z,96417.00
2023-04-21T03:52:47.396Z,96419.00
2023-04-21T03:55:14.581Z,96420.00
2023-04-21T03:57:42.464Z,96416.00
2023-04-21T04:00:10.757Z,96419.00
2023-04-21T04:02:38.437Z,96419.00
2023-04-21T04:05:06.225Z,96422.00
2023-04-21T04:07:34.318Z,96420.00
2023-04-21T04:10:01.541Z,96439.00
2023-04-21T04:12:28.799Z,96432.00
2023-04-21T04:14:55.935Z,96432.00
2023-04-21T04:17:23.262Z,96428.00
2023-04-21T04:19:50.463Z,96435.00
2023-04-21T04:22:17.620Z,96446.00
2023-04-21T04:24:45.142Z,96443.00
2023-04-21T04:27:14.139Z,96432.00
2023-04-21T04:29:41.542Z,96439.00
2023-04-21T04:32:11.210Z,96436.00
2023-04-21T04:34:39.078Z,96437.00
2023-04-21T04:37:06.650Z,96439.00
2023-04-21T04:39:34.006Z,96440.00
2023-04-21T04:42:01.427Z,96442.00
2023-04-21T04:44:28.738Z,96439.00
2023-04-21T04:46:56.746Z,96441.00
2023-04-21T04:49:24.223Z,96434.00
2023-04-21T04:51:51.589Z,96435.00
2023-04-21T04:54:18.950Z,96441.00
2023-04-21T04:56:46.321Z,96442.00
2023-04-21T04:59:13.527Z,96442.00
2023-04-21T05:01:41.988Z,96438.00
2023-04-21T05:04:09.494Z,96442.00
2023-04-21T05:06:37.330Z,96439.00
2023-04-21T05:09:04.884Z,96434.00
2023-04-21T05:11:32.138Z,96437.00
2023-04-21T05:13:59.445Z,96430.00
2023-04-21T05:16:26.709Z,96438.00
2023-04-21T05:18:54.138Z,96438.00
2023-04-21T05:21:28.274Z,96434.00
2023-04-21T05:23:59.249Z,96447.00
2023-04-21T05:26:27.615Z,96442.00
2023-04-21T05:28:56.475Z,96458.00
2023-04-21T05:31:27.225Z,96443.00
2023-04-21T05:33:54.549Z,96444.00
2023-04-21T05:36:21.793Z,96451.00
2023-04-21T05:38:48.979Z,96447.00
2023-04-21T05:41:16.317Z,96452.00
2023-04-21T05:43:43.669Z,96455.00
2023-04-21T05:46:11.201Z,96447.00
2023-04-21T05:48:38.658Z,96446.00
2023-04-21T05:51:10.973Z,96445.00
2023-04-21T05:53:41.746Z,96452.00
2023-04-21T05:56:12.591Z,96448.00
2023-04-21T05:58:39.765Z,96456.00
2023-04-21T06:01:07.014Z,96454.00
2023-04-21T06:03:34.599Z,96455.00
2023-04-21T06:06:03.556Z,96454.00
2023-04-21T06:08:30.857Z,96457.00
2023-04-21T06:10:58.004Z,96454.00
2023-04-21T06:13:27.440Z,96450.00
2023-04-21T06:15:55.313Z,96440.00
2023-04-21T06:18:23.958Z,96443.00
2023-04-21T06:20:52.457Z,96447.00
2023-04-21T06:23:19.759Z,96434.00
2023-04-21T06:25:47.089Z,96434.00
2023-04-21T06:28:14.282Z,96425.00
2023-04-21T06:30:41.628Z,96412.00
2023-04-21T06:33:09.311Z,96422.00
2023-04-21T06:35:36.534Z,96416.00
2023-04-21T06:38:03.721Z,96422.00
2023-04-21T06:40:30.918Z,96426.00
2023-04-21T06:42:58.098Z,96429.00
2023-04-21T06:45:25.460Z,96418.00
2023-04-21T06:47:52.763Z,96412.00
2023-04-21T06:50:20.012Z,96419.00
2023-04-21T06:52:47.172Z,96413.00
2023-04-21T06:55:14.413Z,96401.00
2023-04-21T06:57:41.700Z,96413.00
2023-04-21T07:00:09.733Z,96417.00
2023-04-21T07:02:36.971Z,96422.00
2023-04-21T07:05:04.705Z,96419.00
2023-04-21T07:07:31.916Z,96422.00
2023-04-21T07:09:59.099Z,96413.00
2023-04-21T07:12:26.302Z,96402.00
2023-04-21T07:14:53.486Z,96400.00
2023-04-21T07:17:20.767Z,96386.00
2023-04-21T07:19:47.942Z,96383.00
2023-04-21T07:22:15.112Z,96366.00
2023-04-21T07:24:42.280Z,96371.00
2023-04-21T07:27:09.597Z,96369.00
2023-04-21T07:29:37.307Z,96358.00
2023-04-21T07:32:04.552Z,96362.00
2023-04-21T07:34:31.747Z,96369.00
2023-04-21T07:36:59.002Z,96376.00
2023-04-21T07:39:26.230Z,96370.00
2023-04-21T07:41:54.006Z,96376.00
2023-04-21T07:44:21.264Z,96373.00
2023-04-21T07:46:48.502Z,96367.00
2023-04-21T07:49:15.732Z,96365.00
2023-04-21T07:51:42.928Z,96361.00
2023-04-21T07:54:10.141Z,96365.00
2023-04-21T07:56:37.311Z,96364.00
2023-04-21T07:59:04.491Z,96359.00
2023-04-21T08:01:31.674Z,96358.00
2023-04-21T08:03:58.995Z,96353.00
2023-04-21T08:06:27.610Z,96341.00
2023-04-21T08:08:55.864Z,96349.00
2023-04-21T08:11:23.128Z,96342.00
2023-04-21T08:13:51.562Z,96348.00
2023-04-21T08:16:18.854Z,96352.00
2023-04-21T08:18:46.072Z,96344.00
2023-04-21T08:21:14.038Z,96338.00
2023-04-21T08:23:41.317Z,96343.00
2023-04-21T08:26:09.002Z,96347.00
2023-04-21T08:28:36.199Z,96346.00
2023-04-21T08:31:04.879Z,96348.00
2023-04-21T08:33:32.153Z,96341.00
2023-04-21T08:36:07.420Z,96333.00
2023-04-21T08:38:37.730Z,96334.00
2023-04-21T08:41:05.747Z,96330.00
2023-04-21T08:43:34.051Z,96324.00
2023-04-21T08:46:08.261Z,96325.00
2023-04-21T08:48:37.967Z,96320.00
2023-04-21T08:51:11.924Z,96314.00
2023-04-21T08:53:41.602Z,96312.00
2023-04-21T08:56:11.769Z,96311.00
2023-04-21T08:58:39.336Z,96313.00
2023-04-21T09:01:06.562Z,96311.00
2023-04-21T09:03:34.276Z,96317.00
2023-04-21T09:06:07.990Z,96312.00
2023-04-21T09:08:38.616Z,96314.00
2023-04-21T09:11:05.880Z,96311.00
2023-04-21T09:13:34.934Z,96314.00
2023-04-21T09:16:05.156Z,96310.00
2023-04-21T09:18:40.011Z,96305.00
2023-04-21T09:21:15.817Z,96300.00
2023-04-21T09:23:53.501Z,96310.00
2023-04-21T09:26:24.525Z,96308.00
2023-04-21T09:28:53.074Z,96310.00
2023-04-21T09:31:29.235Z,96318.00
2023-04-21T09:34:01.210Z,96316.00
2023-04-21T09:36:31.010Z,96319.00
2023-04-21T09:39:30.152Z,96328.00
2023-04-21T09:41:50.072Z,96324.00
2023-04-21T09:44:18.246Z,96318.00
2023-04-21T09:46:50.332Z,96323.00
2023-04-21T09:49:18.386Z,96320.00
2023-04-21T09:54:29.140Z,96324.00
2023-04-21T09:57:01.746Z,96327.00
2023-04-21T09:59:32.077Z,96327.00
2023-04-21T10:02:01.265Z,96336.00
2023-04-21T10:04:30.252Z,96337.00
2023-04-21T10:06:58.608Z,96337.00
2023-04-21T10:09:31.736Z,96344.00
2023-04-21T10:11:58.950Z,96340.00
2023-04-21T10:14:26.464Z,96338.00
2023-04-21T10:16:57.558Z,96339.00
2023-04-21T10:19:26.388Z,96346.00
2023-04-21T10:21:56.992Z,96353.00
2023-04-21T10:24:24.891Z,96348.00
2023-04-21T10:26:54.857Z,96343.00
2023-04-21T10:32:07.705Z,96338.00
2023-04-21T10:34:37.301Z,96336.00
2023-04-21T10:37:04.782Z,96332.00
2023-04-21T10:39:43.374Z,96334.00
2023-04-21T10:42:13.663Z,96325.00
2023-04-21T10:44:44.470Z,96317.00
2023-04-21T10:47:11.821Z,96322.00
2023-04-21T10:49:40.042Z,96328.00
2023-04-21T10:52:08.057Z,96323.00
2023-04-21T10:55:05.723Z,96319.00
2023-04-21T10:57:34.324Z,96318.00
2023-04-21T11:00:01.840Z,96311.00
2023-04-21T11:02:29.121Z,96309.00
2023-04-21T11:04:56.757Z,96302.00
2023-04-21T11:07:25.237Z,96305.00
2023-04-21T11:10:00.872Z,96312.00
2023-04-21T11:12:41.563Z,96313.00
2023-04-21T11:15:10.990Z,96310.00
2023-04-21T11:17:39.785Z,96303.00
2023-04-21T11:20:08.458Z,96298.00
2023-04-21T11:22:37.677Z,96309.00
2023-04-21T11:25:05.381Z,96322.00
2023-04-21T11:27:32.574Z,96323.00
2023-04-21T11:30:02.746Z,96323.00
2023-04-21T11:32:29.987Z,96312.00
2023-04-21T11:34:57.422Z,96311.00
2023-04-21T11:37:26.997Z,96306.00
2023-04-21T11:40:06.207Z,96305.00
2023-04-21T11:42:33.528Z,96305.00
2023-04-21T11:45:00.881Z,96301.00
2023-04-21T11:47:28.841Z,96305.00
2023-04-21T11:50:04.070Z,96293.00
2023-04-21T11:52:33.235Z,96284.00
2023-04-21T11:55:06.493Z,96276.00
2023-04-21T11:57:34.405Z,96270.00
2023-04-21T12:00:11.951Z,96279.00
2023-04-21T12:02:39.837Z,96280.00
2023-04-21T12:05:12.022Z,96285.00
2023-04-21T12:07:43.969Z,96287.00
2023-04-21T12:10:13.294Z,96294.00
2023-04-21T12:12:41.784Z,96283.00
2023-04-21T12:15:11.279Z,96278.00
2023-04-21T12:17:45.837Z,96280.00
2023-04-21T12:20:17.470Z,96276.00
2023-04-21T12:22:44.826Z,96276.00
2023-04-21T12:25:12.298Z,96265.00
2023-04-21T12:27:49.062Z,96272.00
2023-04-21T12:30:17.239Z,96278.00
2023-04-21T12:32:44.632Z,96275.00
2023-04-21T12:35:11.982Z,96284.00
2023-04-21T12:37:39.255Z,96287.00
2023-04-21T12:40:07.980Z,96294.00
2023-04-21T12:42:37.464Z,96292.00
2023-04-21T12:45:06.358Z,96293.00
2023-04-21T12:47:33.920Z,96308.00
2023-04-21T12:50:01.307Z,96314.00
2023-04-21T12:52:28.613Z,96321.00
2023-04-21T12:54:55.881Z,96337.00
2023-04-21T12:57:23.091Z,96334.00
2023-04-21T12:59:50.504Z,96342.00
2023-04-21T13:02:17.888Z,96353.00
2023-04-21T13:04:45.350Z,96352.00
2023-04-21T13:07:12.673Z,96353.00
2023-04-21T13:09:39.913Z,96359.00
2023-04-21T13:12:07.385Z,96356.00
2023-04-21T13:14:34.631Z,96361.00
2023-04-21T13:17:01.932Z,96363.00
2023-04-21T13:19:29.601Z,96365.00
2023-04-21T13:21:57.098Z,96366.00
2023-04-21T13:24:25.875Z,96351.00
2023-04-21T13:26:53.105Z,96357.00
2023-04-21T13:29:20.405Z,96345.00
2023-04-21T13:31:47.582Z,96343.00
2023-04-21T13:34:14.758Z,96327.00
2023-04-21T13:36:42.199Z,96338.00
2023-04-21T13:39:12.519Z,96328.00
2023-04-21T13:41:39.717Z,96314.00
2023-04-21T13:44:07.117Z,96316.00
2023-04-21T13:46:34.407Z,96309.00
2023-04-21T13:49:02.195Z,96316.00
2023-04-21T13:51:30.161Z,96326.00
2023-04-21T13:53:57.424Z,96333.00
2023-04-21T13:56:24.772Z,96335.00
2023-04-21T13:58:52.034Z,96327.00
2023-04-21T14:01:21.341Z,96324.00
2023-04-21T14:03:49.242Z,96321.00
2023-04-21T14:06:17.337Z,96324.00
2023-04-21T14:08:44.547Z,96320.00
2023-04-21T14:11:11.768Z,96320.00
2023-04-21T14:13:45.384Z,96309.00
2023-04-21T14:16:19.489Z,96313.00
2023-04-21T14:18:47.478Z,96319.00
2023-04-21T14:21:14.700Z,96309.00
2023-04-21T14:23:41.860Z,96300.00
2023-04-21T14:26:09.141Z,96296.00
2023-04-21T14:28:36.497Z,96296.00
2023-04-21T14:31:04.373Z,96292.00
2023-04-21T14:33:33.304Z,96280.00
2023-04-21T14:36:01.122Z,96277.00
2023-04-21T14:38:30.622Z,96270.00
2023-04-21T14:40:57.918Z,96282.00
2023-04-21T14:43:25.163Z,96284.00
2023-04-21T14:45:53.201Z,96284.00
2023-04-21T14:48:21.450Z,96281.00
2023-04-21T14:50:48.681Z,96295.00
2023-04-21T14:53:15.928Z,96293.00
2023-04-21T14:55:43.159Z,96302.00
2023-04-21T14:58:10.469Z,96301.00
2023-04-21T15:00:38.159Z,96299.00
2023-04-21T15:03:05.465Z,96307.00
2023-04-21T15:05:34.802Z,96303.00
2023-04-21T15:08:02.562Z,96306.00
2023-04-21T15:10:30.870Z,96301.00
2023-04-21T15:12:58.226Z,96298.00
2023-04-21T15:15:25.635Z,96294.00
2023-04-21T15:17:52.942Z,96290.00
2023-04-21T15:20:26.662Z,96294.00
2023-04-21T15:22:59.961Z,96287.00
2023-04-21T15:25:27.204Z,96275.00
2023-04-21T15:27:54.416Z,96265.00
2023-04-21T15:30:21.757Z,96258.00
2023-04-21T15:32:49.680Z,96267.00
2023-04-21T15:35:16.977Z,96264.00
2023-04-21T15:37:54.111Z,96252.00
2023-04-21T15:40:33.957Z,96272.00
2023-04-21T15:43:01.318Z,96271.00
2023-04-21T15:45:28.620Z,96261.00
2023-04-21T15:47:56.457Z,96261.00
2023-04-21T15:50:23.672Z,96261.00
2023-04-21T15:52:51.307Z,96261.00
2023-04-21T15:55:19.037Z,96266.00
2023-04-21T15:57:46.368Z,96263.00
2023-04-21T16:00:14.557Z,96274.00
2023-04-21T16:02:41.935Z,96272.00
2023-04-21T16:05:09.878Z,96267.00
2023-04-21T16:07:37.320Z,96265.00
2023-04-21T16:10:04.961Z,96263.00
2023-04-21T16:12:32.191Z,96259.00
2023-04-21T16:15:06.326Z,96255.00
2023-04-21T16:17:43.616Z,96259.00
2023-04-21T16:20:12.172Z,96255.00
2023-04-21T16:22:39.487Z,96256.00
2023-04-21T16:25:07.380Z,96259.00
2023-04-21T16:27:34.729Z,96255.00
2023-04-21T16:30:02.092Z,96257.00
2023-04-21T16:32:29.396Z,96246.00
2023-04-21T16:34:56.722Z,96242.00
2023-04-21T16:37:24.132Z,96250.00
2023-04-21T16:39:51.334Z,96244.00
2023-04-21T16:42:18.548Z,96241.00
2023-04-21T16:44:45.981Z,96248.00
2023-04-21T16:47:13.260Z,96235.00
2023-04-21T16:49:40.586Z,96233.00
2023-04-21T16:52:07.843Z,96233.00
2023-04-21T16:54:35.023Z,96243.00
2023-04-21T16:57:02.337Z,96239.00
2023-04-21T16:59:30.841Z,96239.00
2023-04-21T17:02:00.665Z,96233.00
2023-04-21T17:04:27.931Z,96237.00
2023-04-21T17:06:55.568Z,96235.00
2023-04-21T17:09:22.762Z,96236.00
2023-04-21T17:11:50.003Z,96244.00
2023-04-21T17:14:17.309Z,96239.00
2023-04-21T17:16:44.572Z,96234.00
2023-04-21T17:19:11.874Z,96232.00
2023-04-21T17:21:39.041Z,96237.00
2023-04-21T17:24:06.349Z,96241.00
2023-04-21T17:26:33.558Z,96234.00
2023-04-21T17:29:00.935Z,96238.00
2023-04-21T17:31:29.568Z,96240.00
2023-04-21T17:33:57.240Z,96245.00
2023-04-21T17:36:25.647Z,96251.00
2023-04-21T17:38:52.942Z,96259.00
2023-04-21T17:41:20.129Z,96247.00
2023-04-21T17:43:47.344Z,96248.00
2023-04-21T17:46:14.565Z,96246.00
2023-04-21T17:48:41.918Z,96238.00
2023-04-21T17:51:10.247Z,96244.00
2023-04-21T17:53:38.181Z,96246.00
2023-04-21T17:56:05.394Z,96239.00
2023-04-21T17:58:32.658Z,96242.00
2023-04-21T18:00:59.834Z,96245.00
2023-04-21T18:03:27.450Z,96245.00
2023-04-21T18:05:55.504Z,96232.00
2023-04-21T18:08:22.743Z,96234.00
2023-04-21T18:10:49.922Z,96238.00
2023-04-21T18:13:41.010Z,96240.00
2023-04-21T18:16:08.242Z,96242.00
2023-04-21T18:18:39.389Z,96239.00
2023-04-21T18:21:15.958Z,96237.00
2023-04-21T18:23:57.524Z,96238.00
2023-04-21T18:26:35.594Z,96241.00
2023-04-21T18:29:11.141Z,96234.00
2023-04-21T18:31:39.350Z,96239.00
2023-04-21T18:34:29.466Z,96247.00
2023-04-21T18:39:51.322Z,96253.00
2023-04-21T18:42:18.576Z,96243.00
2023-04-21T18:45:28.143Z,96249.00
2023-04-21T18:47:56.010Z,96248.00
2023-04-21T18:50:51.903Z,96249.00
2023-04-21T18:53:25.922Z,96259.00
2023-04-21T18:56:24.913Z,96263.00
2023-04-21T18:59:25.432Z,96264.00
2023-04-21T19:02:25.161Z,96262.00
2023-04-21T19:05:25.186Z,96263.00
2023-04-21T19:08:38.602Z,96269.00
2023-04-21T19:11:11.317Z,96263.00
2023-04-21T19:13:38.682Z,96264.00
2023-04-21T19:16:06.214Z,96264.00
2023-04-21T19:18:33.461Z,96262.00
2023-04-21T19:21:00.794Z,96253.00
2023-04-21T19:23:28.005Z,96253.00
2023-04-21T19:25:57.403Z,96259.00
2023-04-21T19:28:24.659Z,96250.00
2023-04-21T19:30:51.880Z,96262.00
2023-04-21T19:33:19.140Z,96262.00
2023-04-21T19:35:46.390Z,96263.00
2023-04-21T19:38:13.592Z,96264.00
2023-04-21T19:40:44.316Z,96259.00
2023-04-21T19:43:12.708Z,96267.00
2023-04-21T19:45:39.921Z,96272.00
2023-04-21T19:48:07.611Z,96270.00
2023-04-21T19:50:35.819Z,96269.00
2023-04-21T19:53:03.550Z,96270.00
2023-04-21T19:55:31.016Z,96282.00
2023-04-21T19:57:58.219Z,96281.00
2023-04-21T20:00:25.921Z,96284.00
2023-04-21T20:02:53.226Z,96284.00
2023-04-21T20:05:20.591Z,96285.00
2023-04-21T20:07:47.785Z,96287.00
2023-04-21T20:10:15.065Z,96292.00
2023-04-21T20:12:42.287Z,96280.00
2023-04-21T20:15:11.533Z,96285.00
2023-04-21T20:17:38.818Z,96293.00
2023-04-21T20:20:06.964Z,96285.00
2023-04-21T20:22:34.143Z,96286.00
2023-04-21T20:25:01.340Z,96288.00
2023-04-21T20:27:28.537Z,96286.00
2023-04-21T20:29:56.111Z,96287.00
2023-04-21T20:32:23.410Z,96280.00
2023-04-21T20:34:53.324Z,96278.00
2023-04-21T20:37:22.996Z,96279.00
2023-04-21T20:39:50.243Z,96279.00
2023-04-21T20:42:19.164Z,96271.00
2023-04-21T20:44:47.170Z,96269.00
2023-04-21T20:47:14.501Z,96284.00
2023-04-21T20:49:43.402Z,96272.00
2023-04-21T20:52:10.853Z,96273.00
2023-04-21T20:54:38.271Z,96274.00
2023-04-21T20:57:07.283Z,96281.00
2023-04-21T20:59:34.508Z,96284.00
2023-04-21T21:02:01.804Z,96282.00
2023-04-21T21:04:29.043Z,96279.00
2023-04-21T21:06:56.329Z,96273.00
2023-04-21T21:09:23.510Z,96273.00
2023-04-21T21:11:50.691Z,96280.00
2023-04-21T21:14:17.876Z,96279.00
2023-04-21T21:16:45.327Z,96275.00
2023-04-21T21:19:12.660Z,96278.00
2023-04-21T21:21:39.897Z,96287.00
2023-04-21T21:24:07.314Z,96279.00
2023-04-21T21:26:34.766Z,96280.00
2023-04-21T21:29:02.195Z,96274.00
2023-04-21T21:31:29.412Z,96270.00
2023-04-21T21:33:58.134Z,96282.00
2023-04-21T21:36:25.995Z,96280.00
2023-04-21T21:38:53.236Z,96277.00
2023-04-21T21:41:20.430Z,96283.00
2023-04-21T21:43:47.661Z,96284.00
2023-04-21T21:46:15.146Z,96276.00
2023-04-21T21:48:42.613Z,96281.00
2023-04-21T21:51:09.837Z,96277.00
2023-04-21T21:53:37.056Z,96272.00
2023-04-21T21:56:04.406Z,96267.00
2023-04-21T21:58:31.595Z,96275.00
2023-04-21T22:00:59.307Z,96273.00
2023-04-21T22:03:27.175Z,96280.00
2023-04-21T22:05:54.508Z,96279.00
2023-04-21T22:08:22.009Z,96280.00
2023-04-21T22:10:49.321Z,96277.00
2023-04-21T22:13:16.541Z,96286.00
2023-04-21T22:15:43.767Z,96279.00
2023-04-21T22:18:11.162Z,96280.00
2023-04-21T22:20:38.501Z,96276.00
2023-04-21T22:23:05.743Z,96278.00
2023-04-21T22:25:32.986Z,96281.00
2023-04-21T22:28:00.228Z,96279.00
2023-04-21T22:30:27.416Z,96285.00
2023-04-21T22:32:54.673Z,96285.00
2023-04-21T22:35:21.977Z,96283.00
2023-04-21T22:37:49.210Z,96277.00
2023-04-21T22:40:16.426Z,96279.00
2023-04-21T22:42:43.626Z,96279.00
2023-04-21T22:45:11.149Z,96275.00
2023-04-21T22:47:38.430Z,96280.00
2023-04-21T22:50:06.256Z,96275.00
2023-04-21T22:52:33.429Z,96269.00
2023-04-21T22:55:00.688Z,96272.00
2023-04-21T22:57:27.997Z,96272.00
2023-04-21T22:59:55.246Z,96270.00
2023-04-21T23:02:22.653Z,96267.00
2023-04-21T23:04:50.043Z,96267.00
2023-04-21T23:07:17.244Z,96258.00
2023-04-21T23:09:44.385Z,96253.00
2023-04-21T23:12:11.585Z,96254.00
2023-04-21T23:14:38.835Z,96250.00
2023-04-21T23:17:06.270Z,96248.00
2023-04-21T23:19:33.478Z,96247.00
2023-04-21T23:22:00.705Z,96249.00
2023-04-21T23:24:27.902Z,96249.00
2023-04-21T23:26:55.155Z,96237.00
2023-04-21T23:29:22.355Z,96238.00
2023-04-21T23:31:49.614Z,96239.00
2023-04-21T23:34:16.854Z,96236.00
2023-04-21T23:36:44.101Z,96245.00
2023-04-21T23:39:11.419Z,96244.00
2023-04-21T23:41:38.674Z,96240.00
2023-04-21T23:44:06.216Z,96241.00
2023-04-21T23:46:33.452Z,96248.00
2023-04-21T23:49:00.670Z,96245.00
2023-04-21T23:51:28.173Z,96245.00
2023-04-21T23:53:55.633Z,96244.00
2023-04-21T23:56:22.830Z,96243.00
2023-04-21T23:58:50.006Z,96243.00
